createdAt,value
2022-12-16T00:00:49.906Z,83.22
2022-12-16T00:03:58.378Z,83.07
2022-12-16T00:07:04.082Z,83.17
2022-12-16T00:10:11.418Z,83.33
2022-12-16T00:13:17.121Z,83.51
2022-12-16T00:16:23.866Z,83.30
2022-12-16T00:19:29.653Z,83.20
2022-12-16T00:22:35.429Z,83.05
2022-12-16T00:25:42.139Z,82.90
2022-12-16T00:28:48.145Z,83.17
2022-12-16T00:31:53.797Z,83.47
2022-12-16T00:34:59.653Z,83.25
2022-12-16T00:38:05.213Z,83.35
2022-12-16T00:41:10.765Z,83.53
2022-12-16T00:44:16.410Z,83.61
2022-12-16T00:47:21.947Z,83.54
2022-12-16T00:50:28.021Z,83.35
2022-12-16T00:53:33.887Z,83.28
2022-12-16T00:56:39.845Z,83.19
2022-12-16T00:59:45.689Z,83.20
2022-12-16T01:02:53.563Z,83.49
2022-12-16T01:05:59.451Z,83.56
2022-12-16T01:09:05.203Z,83.53
2022-12-16T01:12:11.059Z,83.26
2022-12-16T01:15:17.224Z,83.35
2022-12-16T01:18:22.873Z,83.56
2022-12-16T01:21:28.525Z,83.31
2022-12-16T01:24:34.372Z,83.48
2022-12-16T01:27:40.138Z,83.53
2022-12-16T01:30:45.789Z,83.60
2022-12-16T01:33:51.849Z,83.63
2022-12-16T01:36:57.501Z,83.56
2022-12-16T01:40:03.361Z,83.41
2022-12-16T01:43:13.643Z,83.49
2022-12-16T01:46:24.698Z,83.68
2022-12-16T01:49:35.354Z,83.67
2022-12-16T01:52:47.740Z,83.81
2022-12-16T01:55:56.753Z,83.67
2022-12-16T01:59:03.414Z,83.73
2022-12-16T02:02:10.194Z,83.72
2022-12-16T02:05:24.625Z,83.64
2022-12-16T02:08:30.372Z,83.85
2022-12-16T02:12:04.448Z,83.92
2022-12-16T02:15:24.889Z,83.80
2022-12-16T02:18:42.215Z,83.94
2022-12-16T02:21:53.910Z,83.99
2022-12-16T02:25:25.784Z,83.95
2022-12-16T02:28:51.805Z,83.88
2022-12-16T02:32:09.228Z,83.72
2022-12-16T02:35:26.351Z,83.70
2022-12-16T02:38:43.164Z,83.51
2022-12-16T02:41:57.936Z,83.72
2022-12-16T02:45:09.598Z,83.94
2022-12-16T02:48:15.174Z,83.95
2022-12-16T02:51:21.537Z,83.96
2022-12-16T02:54:25.963Z,83.96
2022-12-16T02:58:00.537Z,84.07
2022-12-16T03:01:13.470Z,83.90
2022-12-16T03:04:23.675Z,84.04
2022-12-16T03:07:32.033Z,83.82
2022-12-16T03:10:46.152Z,83.79
2022-12-16T03:13:55.888Z,84.01
2022-12-16T03:17:03.109Z,84.13
2022-12-16T03:20:14.138Z,84.21
2022-12-16T03:23:24.209Z,84.43
2022-12-16T03:26:35.546Z,84.39
2022-12-16T03:29:47.903Z,84.31
2022-12-16T03:33:00.819Z,84.43
2022-12-16T03:36:11.599Z,84.29
2022-12-16T03:39:20.319Z,84.22
2022-12-16T03:42:28.021Z,84.24
2022-12-16T03:45:38.378Z,84.20
2022-12-16T03:48:50.917Z,84.20
2022-12-16T03:51:57.481Z,84.18
2022-12-16T03:55:03.025Z,84.22
2022-12-16T03:58:08.669Z,84.42
2022-12-16T04:01:15.808Z,84.18
2022-12-16T04:04:21.611Z,84.18
2022-12-16T04:07:27.078Z,84.31
2022-12-16T04:10:53.394Z,84.47
2022-12-16T04:14:17.173Z,84.45
2022-12-16T04:17:40.844Z,84.36
2022-12-16T04:21:08.112Z,84.27
2022-12-16T04:24:20.513Z,84.22
2022-12-16T04:27:26.172Z,84.17
2022-12-16T04:30:35.001Z,84.36
2022-12-16T04:33:58.521Z,84.29
2022-12-16T04:37:22.648Z,84.29
2022-12-16T04:40:45.813Z,84.36
2022-12-16T04:44:09.279Z,84.58
2022-12-16T04:47:32.837Z,84.53
2022-12-16T04:50:56.213Z,84.69
2022-12-16T04:54:19.483Z,84.75
2022-12-16T04:57:42.850Z,84.47
2022-12-16T05:01:07.939Z,84.54
2022-12-16T05:04:31.530Z,84.68
2022-12-16T05:07:54.999Z,84.70
2022-12-16T05:11:18.468Z,84.59
2022-12-16T05:14:41.935Z,84.40
2022-12-16T05:18:05.102Z,84.27
2022-12-16T05:21:28.775Z,84.40
2022-12-16T05:24:53.201Z,84.57
2022-12-16T05:28:17.474Z,84.69
2022-12-16T05:31:42.807Z,84.66
2022-12-16T05:35:06.248Z,84.64
2022-12-16T05:38:29.603Z,84.75
2022-12-16T05:41:52.841Z,84.97
2022-12-16T05:45:15.927Z,84.86
2022-12-16T05:48:43.114Z,84.88
2022-12-16T05:52:09.217Z,84.86
2022-12-16T05:55:34.190Z,84.87
2022-12-16T05:58:56.972Z,84.97
2022-12-16T06:02:20.687Z,85.04
2022-12-16T06:05:43.911Z,85.06
2022-12-16T06:09:07.172Z,85.03
2022-12-16T06:12:30.645Z,85.05
2022-12-16T06:15:53.774Z,85.04
2022-12-16T06:19:16.913Z,85.00
2022-12-16T06:22:40.336Z,85.06
2022-12-16T06:26:03.704Z,85.14
2022-12-16T06:29:29.226Z,85.10
2022-12-16T06:32:57.588Z,84.87
2022-12-16T06:36:20.668Z,84.83
2022-12-16T06:39:45.033Z,85.07
2022-12-16T06:43:09.959Z,85.19
2022-12-16T06:46:33.499Z,85.25
2022-12-16T06:49:57.000Z,85.31
2022-12-16T06:53:20.573Z,85.09
2022-12-16T06:56:43.604Z,84.96
2022-12-16T07:00:06.582Z,85.20
2022-12-16T07:03:35.362Z,85.37
2022-12-16T07:06:59.261Z,85.37
2022-12-16T07:10:25.189Z,85.48
2022-12-16T07:13:46.911Z,85.41
2022-12-16T07:17:15.243Z,85.04
2022-12-16T07:20:40.056Z,85.03
2022-12-16T07:24:03.368Z,85.20
2022-12-16T07:27:26.513Z,85.09
2022-12-16T07:30:49.795Z,85.35
2022-12-16T07:34:12.957Z,85.51
2022-12-16T07:37:36.544Z,85.18
2022-12-16T07:40:59.801Z,85.22
2022-12-16T07:44:23.160Z,85.48
2022-12-16T07:47:46.293Z,85.57
2022-12-16T07:51:09.695Z,85.61
2022-12-16T07:54:32.809Z,85.36
2022-12-16T07:57:56.218Z,85.41
2022-12-16T08:01:20.979Z,85.30
2022-12-16T08:04:44.490Z,85.30
2022-12-16T08:08:07.850Z,85.26
2022-12-16T08:11:31.123Z,85.43
2022-12-16T08:14:54.380Z,85.37
2022-12-16T08:18:19.383Z,85.44
2022-12-16T08:21:42.569Z,85.56
2022-12-16T08:25:05.613Z,85.66
2022-12-16T08:28:28.893Z,85.78
2022-12-16T08:31:52.245Z,85.87
2022-12-16T08:35:19.501Z,86.12
2022-12-16T08:38:42.767Z,85.84
2022-12-16T08:42:06.341Z,85.89
2022-12-16T08:45:30.524Z,85.83
2022-12-16T08:48:53.790Z,85.76
2022-12-16T08:52:31.512Z,85.72
2022-12-16T08:55:55.912Z,85.75
2022-12-16T08:59:19.457Z,85.82
2022-12-16T09:02:43.084Z,85.89
2022-12-16T09:06:08.850Z,85.95
2022-12-16T09:09:32.322Z,86.02
2022-12-16T09:12:55.483Z,85.84
2022-12-16T09:16:20.021Z,85.92
2022-12-16T09:19:43.217Z,85.97
2022-12-16T09:23:06.301Z,86.01
2022-12-16T09:26:29.616Z,85.99
2022-12-16T09:30:04.406Z,86.08
2022-12-16T09:33:27.975Z,86.18
2022-12-16T09:36:51.109Z,86.02
2022-12-16T09:40:14.305Z,86.09
2022-12-16T09:43:57.193Z,86.20
2022-12-16T09:47:28.065Z,86.16
2022-12-16T09:50:54.710Z,86.02
2022-12-16T09:54:20.862Z,85.96
2022-12-16T09:57:49.647Z,86.08
2022-12-16T10:01:15.101Z,86.20
2022-12-16T10:04:38.930Z,86.23
2022-12-16T10:08:08.952Z,86.21
2022-12-16T10:11:43.378Z,86.16
2022-12-16T10:15:09.920Z,86.07
2022-12-16T10:33:32.445Z,85.71
2022-12-16T10:36:58.276Z,85.56
2022-12-16T10:40:23.492Z,85.52
2022-12-16T10:43:54.862Z,85.39
2022-12-16T10:47:19.228Z,85.70
2022-12-16T11:03:57.093Z,85.68
2022-12-16T11:07:20.324Z,85.42
2022-12-16T11:10:50.760Z,85.76
2022-12-16T11:14:33.966Z,85.53
2022-12-16T11:17:57.330Z,85.53
2022-12-16T11:21:36.366Z,85.66
2022-12-16T11:24:59.629Z,85.80
2022-12-16T11:28:30.266Z,85.78
2022-12-16T11:31:57.961Z,85.66
2022-12-16T11:35:28.871Z,85.67
2022-12-16T11:38:58.798Z,85.62
2022-12-16T11:42:23.569Z,85.46
2022-12-16T11:45:47.273Z,85.39
2022-12-16T11:49:13.814Z,85.53
2022-12-16T11:52:41.994Z,85.23
2022-12-16T11:56:14.187Z,85.04
2022-12-16T11:59:45.292Z,84.98
2022-12-16T12:03:15.862Z,85.31
2022-12-16T12:06:44.644Z,85.40
2022-12-16T12:30:24.976Z,84.72
2022-12-16T12:33:55.755Z,84.56
2022-12-16T12:37:30.965Z,84.63
2022-12-16T12:41:06.455Z,84.77
2022-12-16T12:44:48.561Z,84.73
2022-12-16T12:48:34.569Z,84.85
2022-12-16T12:52:05.189Z,84.76
2022-12-16T12:55:36.132Z,84.54
2022-12-16T12:59:01.166Z,84.41
2022-12-16T13:02:31.594Z,84.48
2022-12-16T13:05:57.088Z,84.49
2022-12-16T13:09:20.558Z,84.50
2022-12-16T13:12:47.370Z,84.15
2022-12-16T13:16:16.150Z,84.24
2022-12-16T13:20:11.427Z,84.32
2022-12-16T13:23:59.047Z,84.30
2022-12-16T13:27:22.724Z,84.30
2022-12-16T13:30:47.458Z,84.17
2022-12-16T13:34:13.859Z,84.20
2022-12-16T13:37:45.121Z,84.17
2022-12-16T13:41:15.237Z,84.06
2022-12-16T13:45:09.933Z,84.14
2022-12-16T13:48:52.343Z,84.02
2022-12-16T13:52:23.397Z,84.11
2022-12-16T13:55:49.705Z,84.13
2022-12-16T13:59:18.964Z,84.08
2022-12-16T14:02:50.474Z,83.97
2022-12-16T14:06:14.887Z,83.87
2022-12-16T14:09:49.723Z,83.89
2022-12-16T14:13:21.793Z,83.85
2022-12-16T14:16:57.188Z,83.87
2022-12-16T14:20:29.548Z,83.82
2022-12-16T14:24:01.107Z,83.76
2022-12-16T14:27:33.867Z,83.70
2022-12-16T14:30:58.359Z,83.68
2022-12-16T14:34:23.469Z,83.47
2022-12-16T14:37:55.167Z,83.62
2022-12-16T14:41:18.497Z,83.57
2022-12-16T14:44:43.626Z,83.73
2022-12-16T14:48:12.090Z,83.84
2022-12-16T14:51:50.201Z,83.67
2022-12-16T14:55:13.567Z,83.91
2022-12-16T14:58:38.984Z,83.93
2022-12-16T15:02:02.941Z,83.81
2022-12-16T15:05:27.871Z,83.72
2022-12-16T15:08:55.125Z,83.71
2022-12-16T15:12:20.336Z,83.73
2022-12-16T15:15:50.257Z,83.66
2022-12-16T15:19:19.306Z,83.66
2022-12-16T15:22:42.831Z,83.52
2022-12-16T15:26:13.361Z,83.57
2022-12-16T15:29:52.113Z,83.63
2022-12-16T15:33:15.353Z,83.68
2022-12-16T15:36:50.598Z,83.54
2022-12-16T15:40:13.861Z,83.54
2022-12-16T15:43:54.845Z,83.48
2022-12-16T15:47:20.661Z,83.56
2022-12-16T15:50:46.081Z,83.54
2022-12-16T15:54:22.252Z,83.50
2022-12-16T15:57:51.454Z,83.59
2022-12-16T16:01:19.610Z,83.55
2022-12-16T16:04:45.620Z,83.73
2022-12-16T16:08:08.826Z,83.68
2022-12-16T16:11:32.010Z,83.60
2022-12-16T16:14:55.352Z,83.58
2022-12-16T16:18:31.930Z,83.67
2022-12-16T16:21:55.193Z,83.56
2022-12-16T16:25:30.236Z,83.58
2022-12-16T16:28:53.909Z,83.81
2022-12-16T16:32:17.297Z,83.81
2022-12-16T16:35:40.437Z,83.74
2022-12-16T16:39:04.009Z,83.61
2022-12-16T16:42:28.395Z,83.55
2022-12-16T16:45:51.709Z,83.60
2022-12-16T16:49:14.724Z,83.64
2022-12-16T16:52:39.976Z,83.54
2022-12-16T16:56:03.295Z,83.65
2022-12-16T16:59:28.515Z,83.57
2022-12-16T17:02:51.828Z,83.48
2022-12-16T17:06:15.984Z,83.59
2022-12-16T17:09:39.226Z,83.62
2022-12-16T17:13:04.744Z,83.69
2022-12-16T17:16:28.511Z,83.48
2022-12-16T17:19:52.297Z,83.62
2022-12-16T17:23:15.357Z,83.48
2022-12-16T17:26:39.297Z,83.51
2022-12-16T17:30:02.818Z,83.64
2022-12-16T17:33:25.474Z,83.62
2022-12-16T17:36:48.721Z,83.50
2022-12-16T17:40:23.660Z,83.40
2022-12-16T17:43:47.231Z,83.49
2022-12-16T17:47:10.205Z,83.49
2022-12-16T17:50:33.664Z,83.65
2022-12-16T17:54:00.798Z,83.60
2022-12-16T17:57:26.536Z,83.81
2022-12-16T18:00:49.802Z,83.52
2022-12-16T18:04:12.892Z,83.42
2022-12-16T18:07:36.198Z,83.57
2022-12-16T18:10:59.492Z,83.59
2022-12-16T18:14:22.858Z,83.35
2022-12-16T18:17:46.327Z,83.49
2022-12-16T18:21:09.592Z,83.66
2022-12-16T18:24:33.062Z,83.55
2022-12-16T18:27:57.556Z,83.63
2022-12-16T18:31:25.193Z,83.47
2022-12-16T18:34:48.590Z,83.43
2022-12-16T18:38:16.276Z,83.53
2022-12-16T18:41:41.467Z,83.46
2022-12-16T18:45:07.395Z,83.37
2022-12-16T18:48:28.918Z,83.52
2022-12-16T18:51:52.387Z,83.50
2022-12-16T18:55:27.223Z,83.39
2022-12-16T18:58:51.586Z,83.43
2022-12-16T19:02:15.883Z,83.47
2022-12-16T19:05:39.475Z,83.44
2022-12-16T19:09:02.742Z,83.33
2022-12-16T19:12:26.825Z,83.37
2022-12-16T19:15:49.756Z,83.50
2022-12-16T19:19:19.323Z,83.58
2022-12-16T19:22:43.584Z,83.67
2022-12-16T19:26:06.843Z,83.46
2022-12-16T19:29:30.631Z,83.38
2022-12-16T19:32:53.987Z,83.39
2022-12-16T19:36:19.673Z,83.58
2022-12-16T19:39:42.873Z,83.60
2022-12-16T19:43:14.258Z,83.36
2022-12-16T19:46:37.543Z,83.50
2022-12-16T19:50:01.195Z,83.56
2022-12-16T19:53:24.430Z,83.37
2022-12-16T19:56:47.900Z,83.36
2022-12-16T20:00:11.128Z,83.19
2022-12-16T20:03:37.691Z,83.12
2022-12-16T20:07:01.174Z,83.13
2022-12-16T20:10:25.983Z,83.28
2022-12-16T20:13:49.148Z,83.17
2022-12-16T20:17:12.198Z,83.16
2022-12-16T20:20:35.868Z,83.10
2022-12-16T20:23:59.444Z,83.24
2022-12-16T20:27:23.116Z,83.18
2022-12-16T20:30:47.302Z,83.23
2022-12-16T20:34:15.029Z,83.16
2022-12-16T20:37:38.445Z,83.06
2022-12-16T20:41:01.911Z,83.04
2022-12-16T20:44:26.300Z,83.06
2022-12-16T20:47:49.464Z,83.23
2022-12-16T20:51:22.592Z,83.29
2022-12-16T20:54:49.407Z,83.16
2022-12-16T20:58:12.671Z,83.02
2022-12-16T21:01:36.332Z,82.99
2022-12-16T21:05:00.328Z,83.09
2022-12-16T21:08:24.474Z,83.12
2022-12-16T21:11:47.982Z,83.03
2022-12-16T21:15:11.553Z,82.86
2022-12-16T21:18:35.227Z,83.14
2022-12-16T21:21:58.493Z,83.09
2022-12-16T21:25:24.795Z,82.91
2022-12-16T21:28:48.913Z,82.90
2022-12-16T21:32:24.780Z,82.91
2022-12-16T21:35:47.589Z,82.99
2022-12-16T21:39:10.633Z,83.13
2022-12-16T21:42:36.743Z,83.13
2022-12-16T21:46:02.030Z,83.00
2022-12-16T21:49:25.602Z,82.84
2022-12-16T21:52:48.865Z,82.96
2022-12-16T21:56:14.074Z,83.10
2022-12-16T21:59:37.235Z,83.06
2022-12-16T22:03:00.400Z,83.06
2022-12-16T22:06:24.278Z,83.04
2022-12-16T22:09:47.952Z,83.00
2022-12-16T22:13:11.114Z,82.72
2022-12-16T22:16:34.798Z,82.50
2022-12-16T22:19:58.049Z,82.77
2022-12-16T22:23:37.068Z,82.77
2022-12-16T22:27:00.660Z,82.60
2022-12-16T22:30:25.691Z,82.65
2022-12-16T22:33:49.119Z,82.39
2022-12-16T22:37:12.909Z,82.54
2022-12-16T22:40:36.150Z,82.65
2022-12-16T22:43:59.338Z,82.56
2022-12-16T22:47:22.805Z,82.54
2022-12-16T22:50:45.148Z,82.70
2022-12-16T22:54:09.746Z,82.61
2022-12-16T22:57:33.013Z,82.97
2022-12-16T23:00:56.888Z,83.01
2022-12-16T23:04:20.468Z,83.03
2022-12-16T23:07:43.832Z,83.18
2022-12-16T23:11:14.259Z,82.88
2022-12-16T23:14:48.908Z,82.78
2022-12-16T23:18:12.222Z,82.66
2022-12-16T23:21:37.675Z,82.82
2022-12-16T23:25:00.940Z,82.88
2022-12-16T23:28:24.474Z,83.00
2022-12-16T23:31:48.016Z,82.89
2022-12-16T23:35:11.651Z,82.97
2022-12-16T23:38:34.912Z,83.12
2022-12-16T23:41:58.088Z,83.16
2022-12-16T23:45:36.192Z,83.10
2022-12-16T23:48:59.433Z,83.14
2022-12-16T23:52:22.823Z,83.11
2022-12-16T23:55:46.095Z,82.96
2022-12-16T23:59:09.762Z,82.97
